createdAt,value
2019-01-17T00:00:01.530Z,84.93
2019-01-17T00:02:48.327Z,84.94
2019-01-17T00:05:25.061Z,84.83
2019-01-17T00:08:11.361Z,85.48
2019-01-17T00:10:55.105Z,85.32
2019-01-17T00:13:43.064Z,86.05
2019-01-17T00:16:29.660Z,86.07
2019-01-17T00:19:29.610Z,86.61
2019-01-17T00:22:35.975Z,87.30
2019-01-17T00:25:25.558Z,87.39
2019-01-17T00:28:13.857Z,87.31
2019-01-17T00:30:56.518Z,87.73
2019-01-17T00:33:44.455Z,87.66
2019-01-17T00:36:44.476Z,87.35
2019-01-17T00:39:26.737Z,87.22
2019-01-17T00:42:03.202Z,87.56
2019-01-17T00:44:51.183Z,87.46
2019-01-17T00:47:30.675Z,87.29
2019-01-17T00:50:25.398Z,87.54
2019-01-17T00:53:11.849Z,87.10
2019-01-17T00:56:02.481Z,87.19
2019-01-17T00:58:53.056Z,86.58
2019-01-17T01:01:39.934Z,86.37
2019-01-17T01:04:35.808Z,85.96
2019-01-17T01:07:15.607Z,85.40
2019-01-17T01:10:03.957Z,85.87
2019-01-17T01:12:48.383Z,85.53
2019-01-17T01:15:51.561Z,85.50
2019-01-17T01:18:35.857Z,85.32
2019-01-17T01:21:23.795Z,85.34
2019-01-17T01:24:15.420Z,85.78
2019-01-17T01:27:15.445Z,85.49
2019-01-17T01:30:12.390Z,85.22
2019-01-17T01:33:00.944Z,85.21
2019-01-17T01:36:07.415Z,85.73
2019-01-17T01:39:01.089Z,86.10
2019-01-17T01:41:48.755Z,85.47
2019-01-17T01:44:36.756Z,85.24
2019-01-17T01:47:17.835Z,85.22
2019-01-17T01:50:04.583Z,85.86
2019-01-17T01:52:56.451Z,86.00
2019-01-17T01:55:25.667Z,86.66
2019-01-17T01:57:54.566Z,86.52
2019-01-17T02:00:23.481Z,86.95
2019-01-17T02:02:52.757Z,86.65
2019-01-17T02:05:22.058Z,86.84
2019-01-17T02:07:51.055Z,86.51
2019-01-17T02:10:19.740Z,86.79
2019-01-17T02:12:48.750Z,86.46
2019-01-17T02:15:17.387Z,86.51
2019-01-17T02:17:46.014Z,87.31
2019-01-17T02:20:15.000Z,87.98
2019-01-17T02:22:43.671Z,88.30
2019-01-17T02:25:14.315Z,88.32
2019-01-17T02:27:43.307Z,88.27
2019-01-17T02:30:13.644Z,88.31
2019-01-17T02:32:42.629Z,88.31
2019-01-17T02:35:11.727Z,88.78
2019-01-17T02:37:40.719Z,88.44
2019-01-17T02:40:11.399Z,88.40
2019-01-17T02:42:40.200Z,88.48
2019-01-17T02:45:12.620Z,88.43
2019-01-17T02:47:41.597Z,88.76
2019-01-17T02:50:11.216Z,88.94
2019-01-17T02:52:40.620Z,88.99
2019-01-17T02:55:09.904Z,88.99
2019-01-17T02:57:38.816Z,88.75
2019-01-17T03:00:13.956Z,88.93
2019-01-17T03:02:42.577Z,88.60
2019-01-17T03:05:13.289Z,88.79
2019-01-17T03:07:42.262Z,89.26
2019-01-17T03:10:16.476Z,89.19
2019-01-17T03:12:45.596Z,89.24
2019-01-17T03:15:14.316Z,89.04
2019-01-17T03:17:42.973Z,89.01
2019-01-17T03:20:13.071Z,88.93
2019-01-17T03:22:42.162Z,88.92
2019-01-17T03:25:11.070Z,88.51
2019-01-17T03:27:40.047Z,88.82
2019-01-17T03:30:12.972Z,89.14
2019-01-17T03:32:41.792Z,88.81
2019-01-17T03:35:10.870Z,88.73
2019-01-17T03:37:39.557Z,88.52
2019-01-17T03:40:09.997Z,88.52
2019-01-17T03:42:38.722Z,88.45
2019-01-17T03:45:08.647Z,88.81
2019-01-17T03:47:37.676Z,88.57
2019-01-17T03:50:08.168Z,88.40
2019-01-17T03:52:37.156Z,88.12
2019-01-17T03:55:06.563Z,88.00
2019-01-17T03:57:35.555Z,88.18
2019-01-17T04:00:05.471Z,88.07
2019-01-17T04:02:34.674Z,87.69
2019-01-17T04:05:03.295Z,87.23
2019-01-17T04:07:32.345Z,87.18
2019-01-17T04:10:01.240Z,87.10
2019-01-17T04:12:30.251Z,86.79
2019-01-17T04:14:58.973Z,86.71
2019-01-17T04:17:28.221Z,86.85
2019-01-17T04:19:56.844Z,86.85
2019-01-17T04:22:25.527Z,86.75
2019-01-17T04:24:57.428Z,86.67
2019-01-17T04:27:25.828Z,86.15
2019-01-17T04:29:54.470Z,86.43
2019-01-17T04:32:23.086Z,86.21
2019-01-17T04:34:51.710Z,86.24
2019-01-17T04:37:20.671Z,85.87
2019-01-17T04:39:49.299Z,85.88
2019-01-17T04:42:18.269Z,85.73
2019-01-17T04:44:46.908Z,85.29
2019-01-17T04:47:15.833Z,85.29
2019-01-17T04:49:45.028Z,84.91
2019-01-17T04:52:13.950Z,85.01
2019-01-17T04:54:42.571Z,85.04
2019-01-17T04:57:11.196Z,85.13
2019-01-17T04:59:39.820Z,85.31
2019-01-17T05:02:08.429Z,85.23
2019-01-17T05:04:37.452Z,84.93
2019-01-17T05:07:06.453Z,84.92
2019-01-17T05:09:35.399Z,84.63
2019-01-17T05:12:04.435Z,84.24
2019-01-17T05:14:33.430Z,83.87
2019-01-17T05:17:02.330Z,83.96
2019-01-17T05:19:30.929Z,83.92
2019-01-17T05:21:59.899Z,83.85
2019-01-17T05:24:28.521Z,83.66
2019-01-17T05:26:57.161Z,83.51
2019-01-17T05:29:26.677Z,83.53
2019-01-17T05:31:55.674Z,82.79
2019-01-17T05:34:24.667Z,83.10
2019-01-17T05:36:53.316Z,83.03
2019-01-17T05:39:22.037Z,82.46
2019-01-17T05:41:51.439Z,82.24
2019-01-17T05:44:20.186Z,82.18
2019-01-17T05:46:48.898Z,82.18
2019-01-17T05:49:17.907Z,82.42
2019-01-17T05:51:47.105Z,82.65
2019-01-17T05:54:15.995Z,82.58
2019-01-17T05:56:44.887Z,82.76
2019-01-17T05:59:13.805Z,82.63
2019-01-17T06:01:42.778Z,82.66
2019-01-17T06:04:11.668Z,82.59
2019-01-17T06:06:40.655Z,82.62
2019-01-17T06:09:10.423Z,82.53
2019-01-17T06:11:39.456Z,82.64
2019-01-17T06:14:08.369Z,82.11
2019-01-17T06:16:37.247Z,82.51
2019-01-17T06:19:06.545Z,82.37
2019-01-17T06:21:35.470Z,82.13
2019-01-17T06:24:04.494Z,82.29
2019-01-17T06:26:33.202Z,81.59
2019-01-17T06:29:01.848Z,81.62
2019-01-17T06:31:30.797Z,81.53
2019-01-17T06:33:59.691Z,81.35
2019-01-17T06:36:28.891Z,81.98
2019-01-17T06:38:57.784Z,81.63
2019-01-17T06:41:26.778Z,81.58
2019-01-17T06:43:55.769Z,81.28
2019-01-17T06:46:24.974Z,81.43
2019-01-17T06:48:54.041Z,81.67
2019-01-17T06:51:22.952Z,81.74
2019-01-17T06:53:51.569Z,82.08
2019-01-17T06:56:20.191Z,81.92
2019-01-17T06:58:49.137Z,81.94
2019-01-17T07:01:17.828Z,81.76
2019-01-17T07:03:46.806Z,81.66
2019-01-17T07:06:15.464Z,81.62
2019-01-17T07:08:44.078Z,81.03
2019-01-17T07:11:12.711Z,81.05
2019-01-17T07:13:41.950Z,81.22
2019-01-17T07:16:10.865Z,81.44
2019-01-17T07:18:39.470Z,80.92
2019-01-17T07:21:08.426Z,81.20
2019-01-17T07:23:37.513Z,80.40
2019-01-17T07:26:06.140Z,80.00
2019-01-17T07:28:35.124Z,79.99
2019-01-17T07:31:03.837Z,80.57
2019-01-17T07:33:32.774Z,80.16
2019-01-17T07:36:01.664Z,80.59
2019-01-17T07:38:30.571Z,80.53
2019-01-17T07:40:59.848Z,81.08
2019-01-17T07:43:28.469Z,81.21
2019-01-17T07:45:57.084Z,81.28
2019-01-17T07:48:25.680Z,80.39
2019-01-17T07:50:54.601Z,79.95
2019-01-17T07:53:23.477Z,80.03
2019-01-17T07:55:52.390Z,80.01
2019-01-17T07:58:21.376Z,80.47
2019-01-17T08:00:50.476Z,80.83
2019-01-17T08:03:19.070Z,81.23
2019-01-17T08:05:47.772Z,81.42
2019-01-17T08:08:16.739Z,81.48
2019-01-17T08:10:45.633Z,81.60
2019-01-17T08:13:15.806Z,81.14
2019-01-17T08:15:44.796Z,81.06
2019-01-17T08:18:18.692Z,80.69
2019-01-17T08:20:44.108Z,81.40
2019-01-17T08:23:13.364Z,81.50
2019-01-17T08:25:41.987Z,81.93
2019-01-17T08:28:10.698Z,81.66
2019-01-17T08:30:39.937Z,81.12
2019-01-17T08:33:10.464Z,81.37
2019-01-17T08:35:39.192Z,80.71
2019-01-17T08:38:08.154Z,80.91
2019-01-17T08:40:39.907Z,80.85
2019-01-17T08:43:08.920Z,80.43
2019-01-17T08:45:37.535Z,80.15
2019-01-17T08:48:06.579Z,79.91
2019-01-17T08:50:35.682Z,79.64
2019-01-17T08:53:04.665Z,79.28
2019-01-17T08:55:33.287Z,79.38
2019-01-17T08:58:04.535Z,79.37
2019-01-17T09:00:33.173Z,79.02
2019-01-17T09:03:01.811Z,79.15
2019-01-17T09:05:30.763Z,79.15
2019-01-17T09:07:59.385Z,79.08
2019-01-17T09:10:33.827Z,79.59
2019-01-17T09:13:02.446Z,78.77
2019-01-17T09:15:33.279Z,78.57
2019-01-17T09:18:05.576Z,78.71
2019-01-17T09:20:37.165Z,79.03
2019-01-17T09:23:06.108Z,79.03
2019-01-17T09:25:35.147Z,79.22
2019-01-17T09:28:03.833Z,79.24
2019-01-17T09:30:32.631Z,78.40
2019-01-17T09:33:01.572Z,78.14
2019-01-17T09:35:30.188Z,78.54
2019-01-17T09:37:59.666Z,78.30
2019-01-17T09:40:28.675Z,78.14
2019-01-17T09:42:57.936Z,77.42
2019-01-17T09:45:26.657Z,76.55
2019-01-17T09:47:55.622Z,76.69
2019-01-17T09:50:25.425Z,76.81
2019-01-17T09:52:54.809Z,76.73
2019-01-17T09:55:23.520Z,77.07
2019-01-17T09:57:52.532Z,76.83
2019-01-17T10:00:26.460Z,76.81
2019-01-17T10:02:55.432Z,77.00
2019-01-17T10:05:24.433Z,76.49
2019-01-17T10:07:53.426Z,76.57
2019-01-17T10:10:22.183Z,76.46
2019-01-17T10:12:51.306Z,76.76
2019-01-17T10:15:26.648Z,76.56
2019-01-17T10:18:42.637Z,76.98
2019-01-17T10:21:33.142Z,76.71
2019-01-17T10:24:28.539Z,76.50
2019-01-17T10:27:26.595Z,75.96
2019-01-17T10:30:21.407Z,76.26
2019-01-17T10:33:09.895Z,76.05
2019-01-17T10:36:09.932Z,75.73
2019-01-17T10:39:00.607Z,75.37
2019-01-17T10:41:52.848Z,74.68
2019-01-17T10:44:54.710Z,76.00
2019-01-17T10:48:18.564Z,75.27
2019-01-17T10:51:34.368Z,75.55
2019-01-17T10:54:34.273Z,74.81
2019-01-17T10:57:30.410Z,74.15
2019-01-17T11:00:34.380Z,73.02
2019-01-17T11:03:18.183Z,71.72
2019-01-17T11:06:02.931Z,72.42
2019-01-17T11:09:03.931Z,72.34
2019-01-17T11:12:09.025Z,70.30
2019-01-17T11:15:18.516Z,71.44
2019-01-17T11:18:25.659Z,71.44
2019-01-17T11:21:37.829Z,72.18
2019-01-17T11:24:28.440Z,72.94
2019-01-17T11:27:38.843Z,72.42
2019-01-17T11:30:21.851Z,70.68
2019-01-17T11:33:29.752Z,71.41
2019-01-17T11:36:20.256Z,71.41
2019-01-17T11:39:26.334Z,71.11
2019-01-17T11:42:54.381Z,72.53
2019-01-17T11:46:02.719Z,72.50
2019-01-17T11:49:09.256Z,71.29
2019-01-17T11:52:05.379Z,69.99
2019-01-17T11:54:53.228Z,69.99
2019-01-17T11:58:05.983Z,69.63
2019-01-17T12:00:59.038Z,69.63
2019-01-17T12:04:01.106Z,68.78
2019-01-17T12:06:29.999Z,70.02
2019-01-17T12:08:59.412Z,71.93
2019-01-17T12:11:28.398Z,71.93
2019-01-17T12:13:57.045Z,71.53
2019-01-17T12:16:25.972Z,72.00
2019-01-17T12:18:54.889Z,71.58
2019-01-17T12:21:23.856Z,71.94
2019-01-17T12:23:52.848Z,72.03
2019-01-17T12:26:21.548Z,71.28
2019-01-17T12:28:50.531Z,71.72
2019-01-17T12:31:19.521Z,71.98
2019-01-17T12:33:48.155Z,72.06
2019-01-17T12:36:16.765Z,71.70
2019-01-17T12:38:45.683Z,71.96
2019-01-17T12:41:14.481Z,71.41
2019-01-17T12:43:43.563Z,71.35
2019-01-17T12:46:12.865Z,71.31
2019-01-17T12:48:41.765Z,71.48
2019-01-17T12:51:11.066Z,71.83
2019-01-17T12:53:40.032Z,71.27
2019-01-17T12:56:09.154Z,71.52
2019-01-17T12:58:39.623Z,71.57
2019-01-17T13:01:08.274Z,71.57
2019-01-17T13:03:37.167Z,72.03
2019-01-17T13:06:05.994Z,72.03
2019-01-17T13:08:35.048Z,72.36
2019-01-17T13:11:04.356Z,72.27
2019-01-17T13:13:33.321Z,71.80
2019-01-17T13:16:01.965Z,71.80
2019-01-17T13:18:30.602Z,72.26
2019-01-17T13:20:59.296Z,70.45
2019-01-17T13:23:28.179Z,69.42
2019-01-17T13:25:56.900Z,69.46
2019-01-17T13:28:25.561Z,69.45
2019-01-17T13:30:54.551Z,69.46
2019-01-17T13:33:23.746Z,70.60
2019-01-17T13:35:52.360Z,70.74
2019-01-17T13:38:21.016Z,70.82
2019-01-17T13:40:49.990Z,70.82
2019-01-17T13:43:18.664Z,69.59
2019-01-17T13:45:47.288Z,70.74
2019-01-17T13:48:15.952Z,71.46
2019-01-17T13:50:44.904Z,71.46
2019-01-17T13:53:13.545Z,71.63
2019-01-17T13:55:42.545Z,71.85
2019-01-17T13:58:11.532Z,72.88
2019-01-17T14:00:40.157Z,72.88
2019-01-17T14:03:09.110Z,72.34
2019-01-17T14:05:37.766Z,72.36
2019-01-17T14:08:06.793Z,72.94
2019-01-17T14:10:35.427Z,73.72
2019-01-17T14:13:04.473Z,73.48
2019-01-17T14:15:33.470Z,73.57
2019-01-17T14:18:02.115Z,73.71
2019-01-17T14:20:31.043Z,73.89
2019-01-17T14:23:02.718Z,74.71
2019-01-17T14:25:31.344Z,74.43
2019-01-17T14:27:59.997Z,74.46
2019-01-17T14:30:30.801Z,74.31
2019-01-17T14:33:00.107Z,74.26
2019-01-17T14:35:29.103Z,74.80
2019-01-17T14:37:58.095Z,74.66
2019-01-17T14:40:26.750Z,74.66
2019-01-17T14:42:56.390Z,75.28
2019-01-17T14:45:25.691Z,75.42
2019-01-17T14:47:54.385Z,75.33
2019-01-17T14:50:25.631Z,74.68
2019-01-17T14:52:54.329Z,74.81
2019-01-17T14:55:23.711Z,74.96
2019-01-17T14:57:54.036Z,74.79
2019-01-17T15:00:25.578Z,74.60
2019-01-17T15:02:54.789Z,74.98
2019-01-17T15:05:23.543Z,74.84
2019-01-17T15:07:52.303Z,75.58
2019-01-17T15:10:24.336Z,75.99
2019-01-17T15:12:53.055Z,75.99
2019-01-17T15:15:21.991Z,75.89
2019-01-17T15:17:51.009Z,75.63
2019-01-17T15:20:20.600Z,75.21
2019-01-17T15:22:50.738Z,75.27
2019-01-17T15:25:19.639Z,74.83
2019-01-17T15:27:48.733Z,74.33
2019-01-17T15:30:19.936Z,74.11
2019-01-17T15:32:49.151Z,73.72
2019-01-17T15:35:19.795Z,73.92
2019-01-17T15:37:48.561Z,73.80
2019-01-17T15:40:20.344Z,73.26
2019-01-17T15:42:49.336Z,72.45
2019-01-17T15:45:18.236Z,72.07
2019-01-17T15:47:47.249Z,72.55
2019-01-17T15:50:16.321Z,72.59
2019-01-17T15:52:45.047Z,73.86
2019-01-17T15:55:15.334Z,75.19
2019-01-17T15:57:44.326Z,74.84
2019-01-17T16:00:16.944Z,76.13
2019-01-17T16:02:45.735Z,78.99
2019-01-17T16:05:19.599Z,80.09
2019-01-17T16:07:48.901Z,81.35
2019-01-17T16:10:17.717Z,81.35
2019-01-17T16:12:46.870Z,81.92
2019-01-17T16:15:18.018Z,80.48
2019-01-17T16:17:47.239Z,80.90
2019-01-17T16:20:16.532Z,80.98
2019-01-17T16:22:46.178Z,81.62
2019-01-17T16:25:15.859Z,81.62
2019-01-17T16:27:44.560Z,81.45
2019-01-17T16:30:16.601Z,81.80
2019-01-17T16:32:45.606Z,82.03
2019-01-17T16:35:14.289Z,82.50
2019-01-17T16:37:43.480Z,82.59
2019-01-17T16:40:12.255Z,82.67
2019-01-17T16:42:41.243Z,82.33
2019-01-17T16:45:11.623Z,82.03
2019-01-17T16:47:40.304Z,81.61
2019-01-17T16:50:19.759Z,81.31
2019-01-17T16:52:48.401Z,80.33
2019-01-17T16:55:17.805Z,79.24
2019-01-17T16:57:49.183Z,79.19
2019-01-17T17:00:29.408Z,79.00
2019-01-17T17:02:58.405Z,78.55
2019-01-17T17:05:27.170Z,79.43
2019-01-17T17:08:00.458Z,81.01
2019-01-17T17:10:29.580Z,81.55
2019-01-17T17:12:58.578Z,82.38
2019-01-17T17:15:27.524Z,82.61
2019-01-17T17:17:56.767Z,81.92
2019-01-17T17:20:25.972Z,82.24
2019-01-17T17:22:54.962Z,82.50
2019-01-17T17:25:24.273Z,83.17
2019-01-17T17:27:55.705Z,83.80
2019-01-17T17:30:25.934Z,83.89
2019-01-17T17:32:54.694Z,83.94
2019-01-17T17:35:23.387Z,84.45
2019-01-17T17:37:52.330Z,84.45
2019-01-17T17:40:29.488Z,85.11
2019-01-17T17:42:58.696Z,84.92
2019-01-17T17:45:28.462Z,85.34
2019-01-17T17:47:59.241Z,85.14
2019-01-17T17:50:28.232Z,85.40
2019-01-17T17:52:57.224Z,86.08
2019-01-17T17:55:26.096Z,86.30
2019-01-17T17:57:55.010Z,86.68
2019-01-17T18:00:42.248Z,86.78
2019-01-17T18:03:10.929Z,85.35
2019-01-17T18:05:39.825Z,84.08
2019-01-17T18:08:09.145Z,83.77
2019-01-17T18:10:38.292Z,83.41
2019-01-17T18:13:07.106Z,82.57
2019-01-17T18:15:36.304Z,80.75
2019-01-17T18:18:05.922Z,80.85
2019-01-17T18:20:34.958Z,81.16
2019-01-17T18:23:03.685Z,81.68
2019-01-17T18:25:32.678Z,83.18
2019-01-17T18:28:02.011Z,84.35
2019-01-17T18:30:31.073Z,85.49
2019-01-17T18:32:59.964Z,85.85
2019-01-17T18:35:28.957Z,86.53
2019-01-17T18:37:57.955Z,86.93
2019-01-17T18:40:27.047Z,87.32
2019-01-17T18:42:55.770Z,87.19
2019-01-17T18:45:24.655Z,86.84
2019-01-17T18:47:53.662Z,86.37
2019-01-17T18:50:27.637Z,86.46
2019-01-17T18:52:56.679Z,85.09
2019-01-17T18:55:25.364Z,83.73
2019-01-17T18:57:54.414Z,83.32
2019-01-17T19:00:25.869Z,83.31
2019-01-17T19:02:54.614Z,82.57
2019-01-17T19:05:23.220Z,81.42
2019-01-17T19:07:52.276Z,81.12
2019-01-17T19:10:21.730Z,81.50
2019-01-17T19:12:50.609Z,81.91
2019-01-17T19:15:22.384Z,82.67
2019-01-17T19:17:51.449Z,83.12
2019-01-17T19:20:20.717Z,82.94
2019-01-17T19:22:49.874Z,82.04
2019-01-17T19:25:18.691Z,81.59
2019-01-17T19:27:47.386Z,80.46
2019-01-17T19:30:18.561Z,80.03
2019-01-17T19:32:47.292Z,80.10
2019-01-17T19:35:16.273Z,80.24
2019-01-17T19:37:45.373Z,80.69
2019-01-17T19:40:16.932Z,81.37
2019-01-17T19:42:45.686Z,80.43
2019-01-17T19:45:15.033Z,80.58
2019-01-17T19:47:44.112Z,80.17
2019-01-17T19:50:19.581Z,80.05
2019-01-17T19:52:48.302Z,78.99
2019-01-17T19:55:17.344Z,78.69
2019-01-17T19:57:46.052Z,77.36
2019-01-17T20:00:15.752Z,77.80
2019-01-17T20:02:44.762Z,77.95
2019-01-17T20:05:14.845Z,77.57
2019-01-17T20:07:43.841Z,77.28
2019-01-17T20:10:15.710Z,77.48
2019-01-17T20:12:45.136Z,77.24
2019-01-17T20:15:13.891Z,76.69
2019-01-17T20:17:42.901Z,75.78
2019-01-17T20:20:12.851Z,73.76
2019-01-17T20:22:41.848Z,74.16
2019-01-17T20:25:10.642Z,73.23
2019-01-17T20:27:39.685Z,73.62
2019-01-17T20:30:13.035Z,71.93
2019-01-17T20:32:41.693Z,69.00
2019-01-17T20:35:10.764Z,67.87
2019-01-17T20:37:39.761Z,68.23
2019-01-17T20:40:10.288Z,67.31
2019-01-17T20:42:39.433Z,67.74
2019-01-17T20:45:10.138Z,67.01
2019-01-17T20:47:38.869Z,68.17
2019-01-17T20:50:10.946Z,69.12
2019-01-17T20:52:40.056Z,69.26
2019-01-17T20:55:09.721Z,70.14
2019-01-17T20:57:38.741Z,70.29
2019-01-17T21:00:13.277Z,69.80
2019-01-17T21:02:42.269Z,69.01
2019-01-17T21:05:11.504Z,69.74
2019-01-17T21:07:40.120Z,70.27
2019-01-17T21:10:10.685Z,70.43
2019-01-17T21:12:42.801Z,69.74
2019-01-17T21:15:12.266Z,70.70
2019-01-17T21:17:43.271Z,70.22
2019-01-17T21:20:14.783Z,70.71
2019-01-17T21:22:45.502Z,71.28
2019-01-17T21:25:16.444Z,70.59
2019-01-17T21:27:47.107Z,69.69
2019-01-17T21:30:18.500Z,70.01
2019-01-17T21:32:50.492Z,69.86
2019-01-17T21:35:19.692Z,69.77
2019-01-17T21:37:50.080Z,69.43
2019-01-17T21:40:20.061Z,69.03
2019-01-17T21:42:50.898Z,68.01
2019-01-17T21:45:19.630Z,67.26
2019-01-17T21:47:48.435Z,66.37
2019-01-17T21:50:22.868Z,66.74
2019-01-17T21:52:51.955Z,67.57
2019-01-17T21:55:22.492Z,68.42
2019-01-17T21:57:53.804Z,69.23
2019-01-17T22:00:24.234Z,68.98
2019-01-17T22:02:53.364Z,68.25
2019-01-17T22:05:22.473Z,67.43
2019-01-17T22:07:53.275Z,67.33
2019-01-17T22:10:22.400Z,68.34
2019-01-17T22:12:53.027Z,68.47
2019-01-17T22:15:23.595Z,68.73
2019-01-17T22:17:52.648Z,69.00
2019-01-17T22:20:21.398Z,68.97
2019-01-17T22:22:52.474Z,69.05
2019-01-17T22:25:21.201Z,69.02
2019-01-17T22:27:53.345Z,69.04
2019-01-17T22:30:24.284Z,69.74
2019-01-17T22:32:56.044Z,69.41
2019-01-17T22:35:25.030Z,69.78
2019-01-17T22:37:54.035Z,69.31
2019-01-17T22:40:23.232Z,69.12
2019-01-17T22:42:51.864Z,68.15
2019-01-17T22:45:23.768Z,68.18
2019-01-17T22:47:52.811Z,68.00
2019-01-17T22:50:21.465Z,68.44
2019-01-17T22:52:50.548Z,68.63
2019-01-17T22:55:20.766Z,68.68
2019-01-17T22:57:49.561Z,67.50
2019-01-17T23:00:24.142Z,67.86
2019-01-17T23:02:52.789Z,68.45
2019-01-17T23:05:21.423Z,68.12
2019-01-17T23:07:51.983Z,68.40
2019-01-17T23:10:21.473Z,68.09
2019-01-17T23:12:50.192Z,68.54
2019-01-17T23:15:19.473Z,69.03
2019-01-17T23:17:49.418Z,69.45
2019-01-17T23:20:21.916Z,68.80
2019-01-17T23:22:52.370Z,66.00
2019-01-17T23:25:21.370Z,65.54
2019-01-17T23:27:51.845Z,65.64
2019-01-17T23:30:20.933Z,65.87
2019-01-17T23:32:49.552Z,66.67
2019-01-17T23:35:22.484Z,66.61
2019-01-17T23:37:51.149Z,66.73
2019-01-17T23:40:21.088Z,67.35
2019-01-17T23:42:49.976Z,67.56
2019-01-17T23:45:18.695Z,66.69
2019-01-17T23:47:47.653Z,67.28
2019-01-17T23:50:17.065Z,67.93
2019-01-17T23:52:46.051Z,68.46
2019-01-17T23:55:15.357Z,68.23
2019-01-17T23:57:44.247Z,68.22
